Time;durP1;ratioP1;P1;durP2;ratioP2;P2;SDS_P1;SDS_P2;PMS_P1;PMS_P2;Temp;Humidity;BMP_temperature;BMP_pressure;BME280_temperature;BME280_humidity;BME280_pressure;Samples;Min_cycle;Max_cycle;Signal;HPM_P1;HPM_P2
2021/11/18 00:01:21;;;;;;;14.82;7.60;;;;;;;11.76;53.24;102285.00;5027649;28;20131;-71
2021/11/18 00:03:48;;;;;;;14.07;7.25;;;;;;;11.76;52.95;102287.72;5040559;28;20052;-69
2021/11/18 00:06:15;;;;;;;12.73;7.70;;;;;;;11.75;53.03;102284.13;5047700;28;20466;-70
2021/11/18 00:08:42;;;;;;;12.88;7.25;;;;;;;11.73;52.97;102280.53;5033958;28;20116;-69
2021/11/18 00:11:11;;;;;;;11.98;7.20;;;;;;;11.74;52.86;102281.44;5034979;28;20140;-71
2021/11/18 00:13:45;;;;;;;12.02;7.40;;;;;;;11.74;53.30;102295.94;5044211;28;20048;-69
2021/11/18 00:16:12;;;;;;;13.82;8.13;;;;;;;11.70;53.47;102291.56;5042171;28;20080;-69
2021/11/18 00:18:41;;;;;;;12.98;7.15;;;;;;;11.72;53.17;102299.66;5047335;28;20044;-71
2021/11/18 00:21:15;;;;;;;12.05;7.00;;;;;;;11.71;52.99;102301.50;5047934;28;20048;-69
2021/11/18 00:23:45;;;;;;;12.93;7.45;;;;;;;11.70;53.01;102305.16;5027499;28;20570;-71
2021/11/18 00:26:12;;;;;;;12.27;6.85;;;;;;;11.70;53.33;102309.72;5045157;28;21104;-71
2021/11/18 00:28:40;;;;;;;12.27;7.63;;;;;;;11.69;53.25;102297.09;5044438;28;20204;-69
2021/11/18 00:31:07;;;;;;;16.75;7.55;;;;;;;11.69;53.03;102291.66;5043235;28;20088;-68
2021/11/18 00:33:36;;;;;;;11.93;6.57;;;;;;;11.70;53.34;102296.13;5031723;28;20053;-69
2021/11/18 00:36:04;;;;;;;11.43;6.82;;;;;;;11.70;53.30;102293.41;5043266;28;20808;-71
2021/11/18 00:38:31;;;;;;;13.07;7.32;;;;;;;11.68;53.26;102301.66;5042603;28;20041;-68
2021/11/18 00:40:58;;;;;;;11.98;7.43;;;;;;;11.70;53.32;102298.84;5042561;28;20140;-72
2021/11/18 00:43:25;;;;;;;13.18;7.53;;;;;;;11.69;53.32;102300.72;5038674;28;20076;-70
2021/11/18 00:45:52;;;;;;;14.18;7.32;;;;;;;11.69;53.24;102298.00;5037768;28;20089;-68
2021/11/18 00:48:19;;;;;;;12.48;7.72;;;;;;;11.71;53.10;102308.78;5046412;28;20045;-69
2021/11/18 00:50:56;;;;;;;13.43;7.05;;;;;;;11.72;53.18;102305.09;5041062;28;20059;-71
2021/11/18 00:53:39;;;;;;;15.70;7.68;;;;;;;11.70;52.74;102309.72;5044117;28;20577;-70
2021/11/18 00:56:06;;;;;;;13.60;7.75;;;;;;;11.67;52.75;102308.06;5043194;28;20084;-69
2021/11/18 00:58:33;;;;;;;12.68;7.32;;;;;;;11.65;52.90;102303.63;5046835;28;20136;-69
2021/11/18 01:00:59;;;;;;;13.13;7.47;;;;;;;11.64;52.77;102307.31;5046458;28;20088;-70
2021/11/18 01:03:27;;;;;;;12.70;7.13;;;;;;;11.62;53.15;102312.81;5047457;28;20138;-71
2021/11/18 01:05:56;;;;;;;12.25;7.43;;;;;;;11.63;53.02;102320.03;5050100;28;20705;-70
2021/11/18 01:08:23;;;;;;;13.98;7.28;;;;;;;11.59;52.65;102313.00;5057553;28;20049;-70
2021/11/18 01:10:54;;;;;;;10.73;6.70;;;;;;;11.59;52.94;102310.28;5044332;28;20061;-69
2021/11/18 01:13:23;;;;;;;14.07;7.68;;;;;;;11.58;52.67;102311.22;5044759;28;20057;-71
2021/11/18 01:15:50;;;;;;;13.13;7.60;;;;;;;11.56;53.14;102315.84;5043596;28;20140;-69
2021/11/18 01:18:17;;;;;;;13.65;8.18;;;;;;;11.54;53.03;102315.03;5046830;28;20143;-72
2021/11/18 01:20:46;;;;;;;15.90;8.77;;;;;;;11.54;52.93;102320.47;5047489;28;20056;-71
2021/11/18 01:23:16;;;;;;;14.45;8.82;;;;;;;11.53;52.87;102323.28;5043952;28;20550;-71
2021/11/18 01:25:43;;;;;;;16.92;8.90;;;;;;;11.49;52.96;102324.38;5038020;28;20060;-68
2021/11/18 01:28:11;;;;;;;16.80;9.60;;;;;;;11.46;52.84;102330.81;5042251;28;20129;-72
2021/11/18 01:30:39;;;;;;;16.02;9.00;;;;;;;11.44;52.92;102332.75;5044543;28;20103;-68
2021/11/18 01:33:08;;;;;;;14.23;8.95;;;;;;;11.41;52.86;102331.06;5046823;28;20072;-69
2021/11/18 01:35:35;;;;;;;15.32;8.52;;;;;;;11.39;52.55;102330.22;5037139;28;20049;-68
2021/11/18 01:38:02;;;;;;;14.77;8.13;;;;;;;11.38;53.07;102333.03;5040625;28;20051;-69
2021/11/18 01:40:33;;;;;;;13.65;7.55;;;;;;;11.39;53.07;102341.13;5056352;28;20048;-69
2021/11/18 01:43:03;;;;;;;12.25;8.13;;;;;;;11.37;52.99;102345.72;5034294;28;20137;-68
2021/11/18 01:45:33;;;;;;;15.13;8.00;;;;;;;11.37;53.05;102350.28;5046374;28;20056;-70
2021/11/18 01:48:00;;;;;;;12.57;7.72;;;;;;;11.36;52.87;102345.84;5046005;28;20096;-68
2021/11/18 01:50:31;;;;;;;13.07;7.13;;;;;;;11.37;52.95;102339.41;5047256;28;20128;-69
2021/11/18 01:52:59;;;;;;;11.02;7.22;;;;;;;11.35;52.92;102335.91;5046575;28;20057;-69
2021/11/18 01:55:26;;;;;;;12.00;6.75;;;;;;;11.35;52.97;102333.19;5049323;28;20148;-69
2021/11/18 01:57:53;;;;;;;10.95;7.25;;;;;;;11.36;52.84;102332.22;5039829;28;20048;-72
2021/11/18 02:00:27;;;;;;;15.55;7.72;;;;;;;11.38;53.14;102331.19;5044969;28;20056;-69
2021/11/18 02:02:55;;;;;;;13.82;7.45;;;;;;;11.34;52.76;102329.59;5034425;28;20088;-71
2021/11/18 02:05:25;;;;;;;12.38;7.63;;;;;;;11.37;52.83;102320.38;5034797;28;20053;-69
2021/11/18 02:07:52;;;;;;;13.30;7.38;;;;;;;11.34;52.75;102326.88;5039946;28;20140;-68
2021/11/18 02:10:31;;;;;;;12.45;7.20;;;;;;;11.37;52.70;102332.13;5044713;28;20573;-70
2021/11/18 02:13:00;;;;;;;14.23;7.88;;;;;;;11.34;52.65;102332.31;5043667;28;20110;-70
2021/11/18 02:15:34;;;;;;;15.77;8.63;;;;;;;11.35;52.45;102335.91;5035086;28;20055;-69
2021/11/18 02:18:03;;;;;;;15.40;9.00;;;;;;;11.31;52.54;102340.59;5046363;28;20554;-72
2021/11/18 02:20:34;;;;;;;15.95;9.05;;;;;;;11.29;52.48;102328.00;5045326;28;20080;-70
2021/11/18 02:23:01;;;;;;;16.80;8.95;;;;;;;11.25;52.53;102343.59;5041413;28;20055;-70
2021/11/18 02:25:32;;;;;;;16.08;8.48;;;;;;;11.23;52.34;102341.88;5040210;28;20127;-70
2021/11/18 02:27:58;;;;;;;17.02;8.25;;;;;;;11.19;52.42;102353.88;5033860;28;20499;-69
2021/11/18 02:30:26;;;;;;;14.45;8.43;;;;;;;11.18;52.63;102358.44;5050740;28;20128;-69
2021/11/18 02:32:55;;;;;;;15.68;8.25;;;;;;;11.16;52.65;102363.03;5034401;28;20118;-70
2021/11/18 02:35:28;;;;;;;12.93;7.38;;;;;;;11.15;52.56;102374.88;5030078;28;20453;-72
2021/11/18 02:37:55;;;;;;;;;;;;;;;10.89;53.26;102378.75;5039124;28;20143;-71
2021/11/18 02:40:24;;;;;;;12.02;6.75;;;;;;;11.08;52.71;102378.81;5042151;28;19924;-69
2021/11/18 02:42:53;;;;;;;12.45;6.50;;;;;;;11.11;52.87;102381.41;5044505;28;20080;-70
2021/11/18 02:45:24;;;;;;;12.95;6.82;;;;;;;11.12;52.89;102376.84;5056519;28;20543;-70
2021/11/18 02:47:51;;;;;;;13.30;7.05;;;;;;;11.11;52.97;102377.81;5038422;28;20136;-69
2021/11/18 02:50:22;;;;;;;11.18;6.32;;;;;;;11.13;53.04;102375.88;5044270;28;20111;-70
2021/11/18 02:52:49;;;;;;;11.25;6.60;;;;;;;11.12;52.68;102372.28;5035874;28;20080;-71
2021/11/18 02:55:32;;;;;;;11.55;7.03;;;;;;;11.13;52.62;102378.59;5047212;28;20057;-68
2021/11/18 02:57:59;;;;;;;13.13;7.35;;;;;;;11.07;52.91;102375.22;5044066;28;20041;-69
2021/11/18 03:00:32;;;;;;;12.48;7.07;;;;;;;11.13;52.46;102373.16;5046222;28;20511;-70
2021/11/18 03:02:59;;;;;;;12.48;7.00;;;;;;;11.08;52.64;102376.09;5047806;28;20055;-72
2021/11/18 03:05:27;;;;;;;11.85;7.63;;;;;;;11.07;52.39;102372.50;5046302;28;20052;-69
2021/11/18 03:07:57;;;;;;;13.15;7.90;;;;;;;11.05;52.64;102379.81;5035335;28;20045;-71
2021/11/18 03:10:27;;;;;;;12.43;7.05;;;;;;;11.06;52.51;102369.84;5042945;28;20064;-69
2021/11/18 03:12:54;;;;;;;12.63;7.38;;;;;;;11.03;52.74;102370.00;5031519;28;20081;-70
2021/11/18 03:15:23;;;;;;;13.48;6.90;;;;;;;11.03;52.37;102370.00;5040161;28;20052;-69
2021/11/18 03:17:49;;;;;;;14.52;7.07;;;;;;;10.99;52.50;102371.94;5045393;28;20137;-69
2021/11/18 03:20:19;;;;;;;14.85;7.35;;;;;;;10.99;52.38;102369.22;5038559;28;20171;-70
2021/11/18 03:22:46;;;;;;;13.90;6.88;;;;;;;10.97;52.66;102376.56;5034544;28;20132;-69
2021/11/18 03:25:15;;;;;;;12.02;6.90;;;;;;;10.96;52.62;102382.06;5039345;28;20084;-69
2021/11/18 03:27:42;;;;;;;12.02;6.93;;;;;;;10.92;52.50;102375.91;5042789;28;20053;-71
2021/11/18 03:30:12;;;;;;;12.27;6.95;;;;;;;10.93;52.56;102374.94;5024177;28;20140;-70
2021/11/18 03:32:39;;;;;;;12.50;7.20;;;;;;;10.89;52.84;102359.72;5038563;28;20533;-69
2021/11/18 03:35:07;;;;;;;12.90;6.60;;;;;;;10.91;52.36;102359.66;5034587;28;20061;-69
2021/11/18 03:37:34;;;;;;;10.35;6.32;;;;;;;10.88;52.37;102371.53;5045056;28;20840;-69
2021/11/18 03:40:00;;;;;;;13.10;7.07;;;;;;;10.87;52.67;102377.06;5042958;28;20689;-70
2021/11/18 03:42:27;;;;;;;13.00;7.68;;;;;;;10.86;52.37;102386.16;5044546;28;20612;-70
2021/11/18 03:44:53;;;;;;;14.02;7.68;;;;;;;10.85;52.41;102381.66;5037556;28;20160;-69
2021/11/18 03:47:20;;;;;;;12.80;7.13;;;;;;;10.83;52.53;102380.84;5043898;28;20072;-69
2021/11/18 03:49:46;;;;;;;10.73;6.85;;;;;;;10.82;52.62;102373.66;5036628;28;20132;-70
2021/11/18 03:52:16;;;;;;;12.50;6.97;;;;;;;10.81;52.45;102378.19;5045635;28;20102;-70
2021/11/18 03:54:45;;;;;;;12.88;7.05;;;;;;;10.81;52.88;102386.34;5044820;28;20053;-70
2021/11/18 03:57:11;;;;;;;14.00;6.72;;;;;;;10.79;52.48;102385.50;5038889;28;20562;-71
2021/11/18 03:59:40;;;;;;;14.43;7.50;;;;;;;10.80;52.65;102380.97;5035659;28;20127;-69
2021/11/18 04:02:07;;;;;;;11.57;6.25;;;;;;;10.78;52.38;102381.06;5045589;28;20135;-71
2021/11/18 04:04:39;;;;;;;14.35;6.88;;;;;;;10.79;52.62;102381.94;5042027;28;20061;-69
2021/11/18 04:07:06;;;;;;;11.27;6.50;;;;;;;10.77;52.58;102373.84;5045658;28;20131;-70
2021/11/18 04:09:33;;;;;;;12.93;7.05;;;;;;;10.76;52.80;102374.81;5038273;28;20091;-69
2021/11/18 04:12:00;;;;;;;12.35;6.88;;;;;;;10.76;52.78;102372.09;5030370;28;20077;-72
2021/11/18 04:14:31;;;;;;;13.45;7.53;;;;;;;10.79;52.69;102384.66;5037017;28;20053;-69
2021/11/18 04:16:58;;;;;;;13.85;7.18;;;;;;;10.76;52.61;102385.66;5039936;28;20490;-72
2021/11/18 04:19:25;;;;;;;11.18;7.10;;;;;;;10.76;52.65;102392.94;5031183;28;20054;-68
2021/11/18 04:21:52;;;;;;;12.70;6.78;;;;;;;10.77;52.62;102386.56;5042726;28;20143;-69
2021/11/18 04:24:24;;;;;;;11.10;7.05;;;;;;;10.77;52.43;102386.56;5046972;28;20084;-69
2021/11/18 04:26:51;;;;;;;11.55;6.55;;;;;;;10.76;52.64;102385.66;5048517;28;20052;-70
2021/11/18 04:29:27;;;;;;;11.20;7.05;;;;;;;10.77;52.65;102392.00;5051014;28;20131;-69
2021/11/18 04:31:58;;;;;;;12.68;7.55;;;;;;;10.76;52.61;102392.94;5041480;28;20130;-69
2021/11/18 04:34:25;;;;;;;14.85;7.25;;;;;;;10.74;52.59;102398.44;5050877;28;20084;-69
2021/11/18 04:36:52;;;;;;;15.32;8.07;;;;;;;10.73;52.60;102393.94;5044781;28;20477;-71
2021/11/18 04:39:19;;;;;;;13.13;7.65;;;;;;;10.71;52.45;102394.97;5038012;28;20087;-69
2021/11/18 04:41:46;;;;;;;13.88;7.20;;;;;;;10.71;52.71;102400.41;5048187;28;20052;-72
2021/11/18 04:44:12;;;;;;;11.35;7.40;;;;;;;10.70;52.63;102409.50;5048916;28;20132;-69
2021/11/18 04:46:42;;;;;;;11.85;7.15;;;;;;;10.68;52.62;102413.16;5044927;28;20056;-72
2021/11/18 04:49:08;;;;;;;14.07;6.72;;;;;;;10.68;52.97;102410.44;5047475;28;20059;-69
2021/11/18 04:54:09;;;;;;;12.48;6.78;;;;;;;10.70;53.04;102413.09;5095580;28;20042;-68
2021/11/18 04:56:36;;;;;;;13.18;6.78;;;;;;;10.72;52.71;102405.75;5101180;27;20150;-68
2021/11/18 04:59:04;;;;;;;12.48;7.25;;;;;;;10.74;52.69;102428.31;5127127;27;20138;-68
2021/11/18 05:01:32;;;;;;;15.30;7.65;;;;;;;10.74;52.83;102416.56;5102882;28;20862;-68
2021/11/18 05:03:59;;;;;;;14.25;7.55;;;;;;;10.74;52.97;102427.41;5118423;27;20041;-68
2021/11/18 05:06:25;;;;;;;13.75;8.85;;;;;;;10.72;52.64;102422.03;5103352;28;20043;-68
2021/11/18 05:08:52;;;;;;;12.13;6.72;;;;;;;10.72;52.88;102416.63;5098566;27;20073;-68
2021/11/18 05:11:19;;;;;;;11.98;6.97;;;;;;;10.72;52.83;102422.03;5114687;27;20453;-68
2021/11/18 05:13:45;;;;;;;13.38;7.50;;;;;;;10.71;52.89;102414.00;5119424;27;20093;-68
2021/11/18 05:16:14;;;;;;;12.93;7.40;;;;;;;10.71;52.63;102409.41;5114903;27;20070;-67
2021/11/18 05:18:41;;;;;;;12.43;7.30;;;;;;;10.70;52.95;102410.38;5101706;28;20051;-68
2021/11/18 05:21:10;;;;;;;15.52;8.10;;;;;;;10.71;52.87;102400.41;5093710;27;20047;-68
2021/11/18 05:23:37;;;;;;;13.48;7.47;;;;;;;10.70;52.91;102399.53;5118539;27;20055;-68
2021/11/18 05:26:04;;;;;;;16.02;7.30;;;;;;;10.68;52.82;102402.31;5117721;27;20137;-68
2021/11/18 05:28:31;;;;;;;13.05;7.28;;;;;;;10.68;52.79;102399.59;5118786;27;20581;-67
2021/11/18 05:30:58;;;;;;;17.02;7.78;;;;;;;10.66;52.86;102393.31;5125458;27;20050;-68
2021/11/18 05:33:28;;;;;;;13.63;7.90;;;;;;;10.67;53.11;102400.53;5124710;27;20051;-68
2021/11/18 05:35:56;;;;;;;13.60;7.22;;;;;;;10.66;53.13;102390.59;5116516;27;20057;-68
2021/11/18 05:38:23;;;;;;;12.18;6.97;;;;;;;10.67;53.07;102399.63;5120315;27;20127;-68
2021/11/18 05:40:50;;;;;;;13.27;6.93;;;;;;;10.67;53.22;102395.09;5118739;27;20094;-68
2021/11/18 05:43:18;;;;;;;15.48;7.88;;;;;;;10.71;53.61;102394.97;5112261;27;20062;-68
2021/11/18 05:45:44;;;;;;;17.50;7.63;;;;;;;10.70;53.36;102396.81;5096879;27;20707;-68
2021/11/18 05:48:15;;;;;;;16.13;7.82;;;;;;;10.74;53.53;102397.53;5119573;27;20435;-68
2021/11/18 05:50:46;;;;;;;15.38;8.10;;;;;;;10.75;53.53;102402.91;5122007;27;20146;-68
2021/11/18 05:53:14;;;;;;;16.90;7.55;;;;;;;10.75;53.45;102405.63;5110770;27;20130;-68
2021/11/18 05:55:41;;;;;;;15.45;7.47;;;;;;;10.75;53.50;102408.34;5120406;27;20147;-68
2021/11/18 05:58:08;;;;;;;13.93;7.32;;;;;;;10.77;53.42;102402.84;5120060;27;20130;-68
2021/11/18 06:00:35;;;;;;;17.63;7.30;;;;;;;10.79;53.58;102407.25;5118021;27;20512;-67
2021/11/18 06:03:03;;;;;;;15.55;7.00;;;;;;;10.82;53.43;102406.25;5123969;27;20529;-67
2021/11/18 06:05:31;;;;;;;15.02;7.35;;;;;;;10.85;53.22;102400.69;5117260;27;20416;-67
2021/11/18 06:07:58;;;;;;;14.05;7.32;;;;;;;10.85;53.68;102409.72;5110757;27;20075;-67
2021/11/18 06:10:27;;;;;;;14.35;7.57;;;;;;;10.88;53.59;102412.28;5122593;27;20083;-68
2021/11/18 06:12:54;;;;;;;16.40;8.02;;;;;;;10.88;53.56;102415.00;5126591;27;20089;-68
2021/11/18 06:15:21;;;;;;;16.20;8.73;;;;;;;10.88;53.65;102406.84;5107012;27;20134;-67
2021/11/18 06:17:48;;;;;;;14.88;7.65;;;;;;;10.88;53.65;102409.56;5120924;27;20503;-68
2021/11/18 06:20:16;;;;;;;16.17;7.72;;;;;;;10.90;53.75;102418.56;5110191;27;20068;-67
2021/11/18 06:22:44;;;;;;;15.93;8.18;;;;;;;10.91;53.60;102433.91;5110773;27;20112;-68
2021/11/18 06:25:13;;;;;;;17.08;8.10;;;;;;;10.92;53.46;102435.69;5116912;27;20162;-68
2021/11/18 06:27:42;;;;;;;14.32;7.97;;;;;;;10.93;53.81;102436.56;5119072;27;20564;-68
2021/11/18 06:30:14;;;;;;;15.20;7.65;;;;;;;10.93;53.70;102437.44;5119304;27;20118;-67
2021/11/18 06:32:41;;;;;;;14.52;7.68;;;;;;;10.93;53.55;102437.44;5115341;27;20085;-67
2021/11/18 06:35:08;;;;;;;15.82;8.15;;;;;;;10.94;53.68;102439.22;5106627;27;20129;-67
2021/11/18 06:37:34;;;;;;;16.73;8.38;;;;;;;10.96;53.76;102441.84;5112254;27;20083;-67
2021/11/18 06:40:01;;;;;;;16.10;8.25;;;;;;;10.96;53.74;102450.88;5107240;27;20062;-69
2021/11/18 06:42:29;;;;;;;18.60;9.40;;;;;;;10.96;53.79;102445.44;5110643;27;20122;-69
2021/11/18 06:44:56;;;;;;;15.00;7.57;;;;;;;10.98;53.80;102442.66;5119067;27;20503;-68
2021/11/18 06:47:23;;;;;;;13.95;7.28;;;;;;;10.99;53.69;102423.59;5113102;27;20126;-68
2021/11/18 06:49:49;;;;;;;13.30;7.85;;;;;;;11.00;53.75;102419.03;5119042;27;20083;-67
2021/11/18 06:52:16;;;;;;;16.52;8.18;;;;;;;11.01;53.97;102432.56;5117083;27;20079;-68
2021/11/18 06:54:43;;;;;;;15.63;7.90;;;;;;;11.03;53.79;102440.66;5122029;27;20047;-66
2021/11/18 06:57:09;;;;;;;14.43;7.93;;;;;;;11.04;53.75;102442.41;5123506;27;20130;-69
2021/11/18 06:59:36;;;;;;;13.93;7.75;;;;;;;11.04;53.63;102440.56;5123888;27;20134;-70
2021/11/18 07:02:02;;;;;;;16.40;7.93;;;;;;;11.06;53.66;102440.50;5113572;27;20731;-69
2021/11/18 07:04:30;;;;;;;16.70;7.88;;;;;;;11.06;53.71;102457.69;5112817;27;20055;-69
2021/11/18 07:06:57;;;;;;;16.48;7.85;;;;;;;11.07;53.89;102450.44;5097141;27;20043;-68
2021/11/18 07:09:23;;;;;;;17.95;8.15;;;;;;;11.10;54.00;102463.00;5118377;27;20059;-68
2021/11/18 07:11:50;;;;;;;15.93;8.52;;;;;;;11.10;53.82;102454.84;5119633;27;20047;-69
2021/11/18 07:14:18;;;;;;;14.88;8.43;;;;;;;11.11;53.86;102452.09;5117583;27;20047;-69
2021/11/18 07:16:44;;;;;;;14.63;7.72;;;;;;;11.12;53.91;102447.53;5118035;27;20134;-69
2021/11/18 07:19:11;;;;;;;14.32;7.80;;;;;;;11.13;53.99;102447.44;5119465;27;20043;-69
2021/11/18 07:21:38;;;;;;;16.38;7.85;;;;;;;11.13;53.83;102455.59;5115421;27;20146;-69
2021/11/18 07:24:07;;;;;;;17.33;8.05;;;;;;;11.16;53.96;102455.47;5111681;27;20147;-69
2021/11/18 07:26:37;;;;;;;16.27;8.35;;;;;;;11.19;53.94;102468.06;5104520;27;20104;-68
2021/11/18 07:29:07;;;;;;;16.60;8.40;;;;;;;11.19;54.19;102471.66;5125729;27;20477;-68
2021/11/18 07:31:35;;;;;;;15.77;8.85;;;;;;;11.17;54.02;102476.28;5120717;27;20124;-68
2021/11/18 07:34:02;;;;;;;16.17;8.38;;;;;;;11.17;53.84;102475.38;5121392;27;20055;-71
2021/11/18 07:36:29;;;;;;;16.88;8.52;;;;;;;11.18;54.21;102477.16;5123218;27;20039;-71
2021/11/18 07:38:59;;;;;;;15.10;8.32;;;;;;;11.19;54.01;102484.38;5117057;27;20048;-71
2021/11/18 07:41:26;;;;;;;14.80;8.20;;;;;;;11.19;54.20;102487.09;5104570;27;20061;-71
2021/11/18 07:43:52;;;;;;;15.82;8.43;;;;;;;11.20;54.14;102486.13;5122812;27;20491;-72
2021/11/18 07:46:40;;;;;;;13.98;7.80;;;;;;;11.20;54.26;102484.28;5110061;27;20042;-72
2021/11/18 07:49:07;;;;;;;14.88;7.43;;;;;;;11.21;53.97;102487.88;5124031;27;20126;-72
2021/11/18 07:51:34;;;;;;;17.67;8.07;;;;;;;11.22;54.54;102489.66;5112321;27;20059;-72
2021/11/18 07:54:00;;;;;;;19.02;9.20;;;;;;;11.21;54.05;102486.03;5124754;27;20105;-72
2021/11/18 07:56:27;;;;;;;16.27;8.25;;;;;;;11.23;54.21;102492.31;5122472;27;20046;-72
2021/11/18 07:58:53;;;;;;;18.95;8.30;;;;;;;11.24;54.24;102495.91;5123885;27;20397;-73
2021/11/18 08:01:20;;;;;;;13.50;7.72;;;;;;;11.26;54.36;102494.03;5126601;27;20043;-72
2021/11/18 08:03:47;;;;;;;15.88;7.47;;;;;;;11.27;54.31;102491.25;5106483;28;20138;-72
2021/11/18 08:06:17;;;;;;;13.23;7.13;;;;;;;11.31;54.43;102486.53;5103983;28;20551;-72
2021/11/18 08:08:45;;;;;;;13.13;6.72;;;;;;;11.31;54.48;102487.41;5100478;28;20535;-72
2021/11/18 08:11:17;;;;;;;16.33;8.23;;;;;;;11.35;54.49;102482.75;5125418;28;20043;-73
2021/11/18 08:13:44;;;;;;;14.95;7.90;;;;;;;11.37;54.27;102486.25;5120768;28;20512;-72
2021/11/18 08:16:12;;;;;;;14.00;7.60;;;;;;;11.38;54.54;102485.31;5123572;28;20083;-72
2021/11/18 08:18:38;;;;;;;14.98;7.47;;;;;;;11.39;54.28;102479.81;5118709;28;20047;-72
2021/11/18 08:21:05;;;;;;;15.45;8.00;;;;;;;11.42;54.33;102485.13;5122121;28;20047;-72
2021/11/18 08:23:33;;;;;;;14.63;7.28;;;;;;;11.44;54.35;102482.34;5117366;28;20088;-72
2021/11/18 08:26:02;;;;;;;13.77;6.70;;;;;;;11.47;54.35;102487.63;5122552;28;20475;-73
2021/11/18 08:28:29;;;;;;;15.73;7.65;;;;;;;11.49;54.30;102487.56;5114652;28;20052;-72
2021/11/18 08:30:56;;;;;;;15.93;7.20;;;;;;;11.50;54.42;102498.38;5120542;27;20081;-71
2021/11/18 08:33:24;;;;;;;14.30;6.97;;;;;;;11.52;54.61;102498.31;5125852;27;20104;-71
2021/11/18 08:35:52;;;;;;;12.88;6.75;;;;;;;11.54;54.44;102502.72;5123039;28;20053;-71
2021/11/18 08:38:20;;;;;;;12.00;6.70;;;;;;;11.56;54.35;102508.97;5122857;28;20476;-68
2021/11/18 08:40:55;;;;;;;12.07;6.50;;;;;;;11.60;54.63;102518.78;5113883;27;20154;-69
2021/11/18 08:43:23;;;;;;;10.82;6.68;;;;;;;11.61;54.32;102533.28;5117048;28;20094;-69
2021/11/18 08:45:50;;;;;;;12.73;6.38;;;;;;;11.62;54.22;102537.72;5113376;28;20083;-69
2021/11/18 08:48:18;;;;;;;11.63;5.95;;;;;;;11.64;54.54;102538.56;5104778;28;20072;-69
2021/11/18 08:50:56;;;;;;;15.10;6.35;;;;;;;11.66;54.37;102544.81;5105955;28;20118;-69
2021/11/18 08:53:26;;;;;;;13.20;7.07;;;;;;;11.70;54.42;102541.00;5106265;28;20047;-69
2021/11/18 08:55:53;;;;;;;13.57;6.45;;;;;;;11.70;54.78;102535.56;5109642;28;20083;-68
2021/11/18 08:58:23;;;;;;;11.18;6.28;;;;;;;11.73;54.41;102541.75;5118028;28;20457;-69
2021/11/18 09:01:11;;;;;;;11.63;6.07;;;;;;;11.74;54.85;102543.56;5106346;28;20131;-69
2021/11/18 09:03:40;;;;;;;12.27;5.95;;;;;;;11.73;54.32;102539.03;5122645;28;20149;-68
2021/11/18 09:06:09;;;;;;;11.15;6.15;;;;;;;11.77;54.38;102550.72;5120144;28;20051;-68
2021/11/18 09:08:36;;;;;;;12.30;6.10;;;;;;;11.77;54.69;102548.88;5117913;27;20071;-68
2021/11/18 09:11:07;;;;;;;12.27;6.35;;;;;;;11.79;54.62;102546.94;5123281;27;20135;-68
2021/11/18 09:13:35;;;;;;;10.80;6.32;;;;;;;11.81;54.57;102544.16;5108505;28;20093;-68
2021/11/18 09:16:03;;;;;;;14.35;6.45;;;;;;;11.82;54.53;102543.22;5121547;27;20502;-68
2021/11/18 09:18:31;;;;;;;12.00;6.00;;;;;;;11.84;54.50;102540.44;5120244;27;20051;-68
2021/11/18 09:21:00;;;;;;;13.48;6.00;;;;;;;11.87;54.83;102548.44;5101878;27;20508;-68
2021/11/18 09:23:32;;;;;;;12.30;6.30;;;;;;;11.89;54.59;102551.97;5119444;27;20043;-68
2021/11/18 09:25:59;;;;;;;11.98;6.30;;;;;;;11.86;54.67;102555.72;5112361;27;20048;-68
2021/11/18 09:28:27;;;;;;;11.68;7.10;;;;;;;11.91;54.55;102558.25;5119932;27;20039;-68
2021/11/18 09:30:57;;;;;;;10.25;5.75;;;;;;;11.93;54.90;102540.00;5126247;27;20043;-68
2021/11/18 09:33:26;;;;;;;12.13;6.35;;;;;;;11.95;54.71;102541.69;5120979;27;20054;-68
2021/11/18 09:35:59;;;;;;;13.32;6.65;;;;;;;11.98;54.81;102538.84;5124792;27;20134;-68
2021/11/18 09:38:27;;;;;;;;;;;;;;;11.75;55.45;102549.88;5108766;27;20438;-68
2021/11/18 09:40:59;;;;;;;13.25;6.20;;;;;;;11.98;54.98;102540.66;5123444;27;20711;-68
2021/11/18 09:43:34;;;;;;;10.52;5.72;;;;;;;12.06;54.76;102533.03;5122937;27;20546;-68
2021/11/18 09:46:46;;;;;;;14.35;6.00;;;;;;;12.07;55.04;102532.97;5103528;27;20103;-68
2021/11/18 09:49:13;;;;;;;9.80;5.57;;;;;;;12.09;54.80;102527.47;5101792;27;20051;-68
2021/11/18 09:52:05;;;;;;;12.07;6.57;;;;;;;12.15;55.00;102538.06;5099741;27;20043;-68
2021/11/18 09:54:50;;;;;;;11.25;6.60;;;;;;;12.17;55.02;102542.47;5121136;27;20416;-68
2021/11/18 09:57:17;;;;;;;13.32;6.35;;;;;;;12.21;54.89;102540.47;5105741;27;20172;-68
2021/11/18 10:00:02;;;;;;;12.55;6.05;;;;;;;12.27;55.08;102542.06;5112062;27;20059;-68
2021/11/18 10:03:10;;;;;;;12.65;5.93;;;;;;;12.28;55.59;102538.34;5099370;27;20040;-68
2021/11/18 10:06:03;;;;;;;11.15;5.97;;;;;;;12.35;55.40;102539.84;5042706;27;20389;-68
2021/11/18 10:08:57;;;;;;;12.15;5.70;;;;;;;12.40;55.74;102551.41;5115054;27;20582;-68
2021/11/18 10:11:42;;;;;;;11.38;6.43;;;;;;;12.47;55.45;102558.31;5100153;27;20051;-68
2021/11/18 10:14:30;;;;;;;13.93;6.28;;;;;;;12.52;55.87;102562.59;5115167;27;20134;-68
2021/11/18 10:17:16;;;;;;;13.43;6.63;;;;;;;12.58;55.51;102566.88;5119214;27;20047;-68
2021/11/18 10:20:02;;;;;;;12.68;5.63;;;;;;;12.66;55.73;102577.41;5121057;27;20136;-69
2021/11/18 10:22:33;;;;;;;15.15;6.40;;;;;;;12.71;55.43;102567.16;5123191;27;20047;-68
2021/11/18 10:25:00;;;;;;;11.32;6.68;;;;;;;12.77;55.70;102558.66;5114339;27;20051;-68
2021/11/18 10:27:41;;;;;;;12.27;5.68;;;;;;;12.85;55.79;102551.88;5099389;27;20071;-68
2021/11/18 10:30:35;;;;;;;11.60;6.15;;;;;;;12.92;55.71;102552.50;5111240;27;20062;-68
2021/11/18 10:33:11;;;;;;;14.60;6.20;;;;;;;13.00;55.88;102541.19;5125105;27;20086;-68
2021/11/18 10:35:44;;;;;;;14.48;6.60;;;;;;;13.09;55.58;102543.47;5121286;27;20063;-68
2021/11/18 10:38:22;;;;;;;12.13;5.85;;;;;;;13.11;55.86;102553.31;5121369;27;21726;-68
2021/11/18 10:41:02;;;;;;;15.60;6.68;;;;;;;13.22;55.77;102548.25;5113353;27;20059;-68
2021/11/18 10:43:34;;;;;;;13.38;5.72;;;;;;;13.28;56.01;102542.47;5115903;27;20039;-68
2021/11/18 10:46:21;;;;;;;11.23;4.97;;;;;;;13.37;55.64;102541.13;5116319;27;20062;-68
2021/11/18 10:49:05;;;;;;;14.32;5.50;;;;;;;13.43;55.60;102529.00;5117796;27;20456;-68
2021/11/18 10:51:34;;;;;;;14.13;5.50;;;;;;;13.52;55.34;102528.50;5122931;27;20032;-68
2021/11/18 10:54:05;;;;;;;12.15;5.38;;;;;;;13.59;55.50;102541.75;5109381;27;20048;-68
2021/11/18 10:56:54;;;;;;;15.02;6.60;;;;;;;13.65;54.81;102546.91;5112342;27;20641;-67
2021/11/18 10:59:33;;;;;;;13.30;5.28;;;;;;;13.74;55.25;102555.56;5113444;27;20507;-68
2021/11/18 11:02:00;;;;;;;12.57;5.30;;;;;;;13.79;55.63;102546.16;5122726;27;20332;-68
2021/11/18 11:04:39;;;;;;;11.90;5.13;;;;;;;13.88;54.67;102526.56;5121169;27;21973;-67
2021/11/18 11:07:08;;;;;;;9.80;4.90;;;;;;;13.93;55.31;102529.03;5122501;27;20185;-68
2021/11/18 11:09:41;;;;;;;12.55;5.68;;;;;;;14.01;54.85;102534.94;5112615;27;20050;-68
2021/11/18 11:12:11;;;;;;;11.80;5.18;;;;;;;14.06;54.55;102530.16;5125256;27;20043;-69
2021/11/18 11:15:02;;;;;;;14.60;5.43;;;;;;;14.12;54.33;102524.34;5117305;27;20074;-68
2021/11/18 11:18:00;;;;;;;13.10;4.88;;;;;;;14.14;54.56;102532.44;5115280;27;20078;-69
2021/11/18 11:20:54;;;;;;;11.93;5.40;;;;;;;14.21;54.32;102518.38;5122232;27;20039;-71
2021/11/18 11:23:45;;;;;;;11.38;5.05;;;;;;;14.29;54.23;102518.81;5121306;27;20051;-71
2021/11/18 11:26:30;;;;;;;13.50;5.55;;;;;;;14.32;53.91;102526.84;5122063;27;20126;-71
2021/11/18 11:29:27;;;;;;;10.32;4.60;;;;;;;14.36;53.69;102514.78;5116594;27;20122;-71
2021/11/18 11:32:31;;;;;;;10.23;4.60;;;;;;;14.41;53.71;102522.75;5114681;27;20126;-71
2021/11/18 11:35:16;;;;;;;12.38;4.75;;;;;;;14.44;54.25;102523.44;5116976;27;20050;-68